DAL213 KCLT-KDCA
Flight info
| Callsign | DAL213 |
|---|---|
| Flight time | 0h 51m |
| Altitude | 31000 |
| Route | KILNS5 AUDII WAVES CAPSS4 |
| Aircraft | A320/M-SDE3FGHIRWY/LB1 |
Departure
| Time | 2026-05-07 23:33 |
|---|---|
| Airport | Charlotte Douglas International Airport (KCLT) |
Arrival
| Time | 2026-05-08 00:25 |
|---|---|
| Airport | Ronald Reagan Washington National Airport (KDCA) |
| Time | Latitude | Longitude | Altitude | Speed | Heading |
|---|---|---|---|---|---|
| 2026-05-07 23:15 | 35.22215 | -80.94746 | 720 ft | 0 kts | 1° |
| 2026-05-07 23:22 | 35.22200 | -80.94746 | 701 ft | 4 kts | 338° |
| 2026-05-07 23:23 | 35.22185 | -80.94727 | 733 ft | 4 kts | 278° |
| 2026-05-07 23:23 | 35.22184 | -80.94723 | 717 ft | 0 kts | 274° |
| 2026-05-07 23:26 | 35.22169 | -80.94765 | 717 ft | 10 kts | 245° |
| 2026-05-07 23:26 | 35.22145 | -80.94840 | 719 ft | 9 kts | 251° |
| 2026-05-07 23:26 | 35.22131 | -80.94911 | 715 ft | 8 kts | 261° |
| 2026-05-07 23:26 | 35.22108 | -80.94966 | 717 ft | 8 kts | 205° |
| 2026-05-07 23:27 | 35.21928 | -80.94963 | 716 ft | 14 kts | 176° |
| 2026-05-07 23:27 | 35.21862 | -80.95013 | 717 ft | 12 kts | 244° |
| 2026-05-07 23:27 | 35.21794 | -80.95035 | 719 ft | 10 kts | 175° |
| 2026-05-07 23:28 | 35.21700 | -80.95027 | 718 ft | 17 kts | 176° |
| 2026-05-07 23:28 | 35.21587 | -80.95017 | 720 ft | 15 kts | 174° |
| 2026-05-07 23:28 | 35.21495 | -80.95008 | 719 ft | 11 kts | 177° |
| 2026-05-07 23:28 | 35.21403 | -80.95002 | 721 ft | 15 kts | 176° |
| 2026-05-07 23:29 | 35.21283 | -80.94989 | 723 ft | 20 kts | 175° |
| 2026-05-07 23:29 | 35.21167 | -80.94981 | 724 ft | 14 kts | 177° |
| 2026-05-07 23:29 | 35.21086 | -80.94974 | 724 ft | 12 kts | 175° |
| 2026-05-07 23:29 | 35.20990 | -80.94965 | 724 ft | 18 kts | 177° |
| 2026-05-07 23:30 | 35.20874 | -80.94956 | 724 ft | 15 kts | 175° |
| 2026-05-07 23:30 | 35.20783 | -80.94948 | 726 ft | 13 kts | 177° |
| 2026-05-07 23:30 | 35.20680 | -80.94939 | 726 ft | 19 kts | 175° |
| 2026-05-07 23:30 | 35.20523 | -80.94925 | 729 ft | 25 kts | 176° |
| 2026-05-07 23:31 | 35.20361 | -80.94911 | 729 ft | 21 kts | 175° |
| 2026-05-07 23:31 | 35.20238 | -80.94900 | 729 ft | 15 kts | 175° |
| 2026-05-07 23:31 | 35.20155 | -80.94893 | 729 ft | 10 kts | 176° |
| 2026-05-07 23:31 | 35.20082 | -80.94887 | 730 ft | 9 kts | 176° |
| 2026-05-07 23:32 | 35.20037 | -80.94899 | 730 ft | 5 kts | 218° |
| 2026-05-07 23:32 | 35.20023 | -80.94946 | 730 ft | 9 kts | 262° |
| 2026-05-07 23:32 | 35.20029 | -80.95071 | 731 ft | 16 kts | 306° |
| 2026-05-07 23:32 | 35.20129 | -80.95093 | 731 ft | 19 kts | 356° |
| 2026-05-07 23:33 | 35.20495 | -80.95124 | 730 ft | 85 kts | 356° |
| 2026-05-07 23:33 | 35.21269 | -80.95192 | 720 ft | 138 kts | 356° |
| 2026-05-07 23:33 | 35.22352 | -80.95282 | 1028 ft | 157 kts | 356° |
| 2026-05-07 23:33 | 35.23393 | -80.95571 | 1680 ft | 159 kts | 333° |
| 2026-05-07 23:34 | 35.24343 | -80.96395 | 2146 ft | 175 kts | 325° |
| 2026-05-07 23:34 | 35.25291 | -80.97424 | 2959 ft | 184 kts | 320° |
| 2026-05-07 23:34 | 35.26325 | -80.98570 | 3523 ft | 217 kts | 321° |
| 2026-05-07 23:34 | 35.27553 | -80.99865 | 4039 ft | 250 kts | 321° |
| 2026-05-07 23:35 | 35.28970 | -81.01302 | 4784 ft | 269 kts | 321° |
| 2026-05-07 23:35 | 35.30521 | -81.02690 | 5800 ft | 285 kts | 330° |
| 2026-05-07 23:35 | 35.32471 | -81.03382 | 6792 ft | 305 kts | 353° |
| 2026-05-07 23:35 | 35.34585 | -81.02909 | 7767 ft | 327 kts | 21° |
| 2026-05-07 23:36 | 35.36411 | -81.01151 | 8825 ft | 343 kts | 52° |
| 2026-05-07 23:36 | 35.37424 | -80.98511 | 10114 ft | 345 kts | 73° |
| 2026-05-07 23:36 | 35.37962 | -80.95653 | 11313 ft | 343 kts | 80° |
| 2026-05-07 23:36 | 35.38325 | -80.92694 | 12154 ft | 358 kts | 82° |
| 2026-05-07 23:37 | 35.38631 | -80.89614 | 12949 ft | 371 kts | 83° |
| 2026-05-07 23:37 | 35.38954 | -80.86413 | 13753 ft | 382 kts | 81° |
| 2026-05-07 23:37 | 35.39327 | -80.83147 | 14464 ft | 393 kts | 80° |
| 2026-05-07 23:37 | 35.39758 | -80.79800 | 15191 ft | 401 kts | 79° |
| 2026-05-07 23:38 | 35.40233 | -80.76400 | 15968 ft | 409 kts | 78° |
| 2026-05-07 23:38 | 35.40739 | -80.72932 | 16726 ft | 416 kts | 78° |
| 2026-05-07 23:38 | 35.41249 | -80.69459 | 17493 ft | 421 kts | 78° |
| 2026-05-07 23:38 | 35.41766 | -80.65903 | 18282 ft | 426 kts | 78° |
| 2026-05-07 23:39 | 35.42283 | -80.62305 | 18937 ft | 431 kts | 78° |
| 2026-05-07 23:39 | 35.42797 | -80.58667 | 19645 ft | 435 kts | 78° |
| 2026-05-07 23:39 | 35.43307 | -80.54999 | 20368 ft | 438 kts | 79° |
| 2026-05-07 23:39 | 35.43817 | -80.51304 | 21095 ft | 440 kts | 79° |
| 2026-05-07 23:40 | 35.44327 | -80.47602 | 21847 ft | 441 kts | 79° |
| 2026-05-07 23:40 | 35.44840 | -80.43891 | 22576 ft | 443 kts | 79° |
| 2026-05-07 23:40 | 35.45367 | -80.40102 | 22855 ft | 459 kts | 79° |
| 2026-05-07 23:40 | 35.45914 | -80.36163 | 22973 ft | 478 kts | 79° |
| 2026-05-07 23:41 | 35.46478 | -80.32087 | 23188 ft | 493 kts | 79° |
| 2026-05-07 23:41 | 35.47058 | -80.27880 | 23345 ft | 508 kts | 79° |
| 2026-05-07 23:41 | 35.47653 | -80.23571 | 23642 ft | 516 kts | 79° |
| 2026-05-07 23:41 | 35.48251 | -80.19196 | 23973 ft | 522 kts | 79° |
| 2026-05-07 23:42 | 35.48850 | -80.14789 | 24289 ft | 526 kts | 79° |
| 2026-05-07 23:42 | 35.49445 | -80.10395 | 24613 ft | 530 kts | 79° |
| 2026-05-07 23:42 | 35.50051 | -80.05914 | 24941 ft | 534 kts | 79° |
| 2026-05-07 23:42 | 35.50660 | -80.01404 | 25247 ft | 537 kts | 79° |
| 2026-05-07 23:43 | 35.51271 | -79.96869 | 25562 ft | 540 kts | 79° |
| 2026-05-07 23:43 | 35.51886 | -79.92294 | 25869 ft | 543 kts | 79° |
| 2026-05-07 23:43 | 35.52502 | -79.87704 | 26161 ft | 547 kts | 79° |
| 2026-05-07 23:43 | 35.53200 | -79.83108 | 26438 ft | 548 kts | 73° |
| 2026-05-07 23:44 | 35.54329 | -79.78641 | 26713 ft | 547 kts | 64° |
| 2026-05-07 23:44 | 35.55699 | -79.74277 | 26997 ft | 549 kts | 63° |
| 2026-05-07 23:44 | 35.57077 | -79.69885 | 27299 ft | 552 kts | 63° |
| 2026-05-07 23:44 | 35.57991 | -79.66967 | 27489 ft | 554 kts | 63° |
| 2026-05-07 23:45 | 35.59377 | -79.62531 | 27772 ft | 556 kts | 63° |
| 2026-05-07 23:45 | 35.60764 | -79.58080 | 28052 ft | 559 kts | 63° |
| 2026-05-07 23:45 | 35.62610 | -79.52144 | 28414 ft | 563 kts | 63° |
| 2026-05-07 23:45 | 35.64007 | -79.47640 | 28683 ft | 566 kts | 63° |
| 2026-05-07 23:46 | 35.64956 | -79.44575 | 28855 ft | 568 kts | 63° |
| 2026-05-07 23:46 | 35.66345 | -79.40074 | 29099 ft | 569 kts | 64° |
| 2026-05-07 23:46 | 35.67764 | -79.35528 | 29399 ft | 568 kts | 60° |
| 2026-05-07 23:46 | 35.69516 | -79.31203 | 29665 ft | 561 kts | 51° |
| 2026-05-07 23:47 | 35.71686 | -79.27264 | 29903 ft | 551 kts | 41° |
| 2026-05-07 23:47 | 35.74212 | -79.23780 | 30111 ft | 540 kts | 32° |
| 2026-05-07 23:47 | 35.77019 | -79.20788 | 30376 ft | 527 kts | 23° |
| 2026-05-07 23:47 | 35.79969 | -79.18109 | 30510 ft | 528 kts | 22° |
| 2026-05-07 23:48 | 35.82941 | -79.15411 | 30698 ft | 531 kts | 22° |
| 2026-05-07 23:48 | 35.85914 | -79.12701 | 30873 ft | 533 kts | 23° |
| 2026-05-07 23:48 | 35.91922 | -79.07191 | 30930 ft | 543 kts | 23° |
| 2026-05-07 23:49 | 35.98019 | -79.01567 | 30929 ft | 550 kts | 24° |
| 2026-05-07 23:49 | 36.04167 | -78.95881 | 30924 ft | 553 kts | 24° |
| 2026-05-07 23:50 | 36.10316 | -78.90197 | 30952 ft | 557 kts | 24° |
| 2026-05-07 23:50 | 36.16534 | -78.84432 | 30956 ft | 559 kts | 24° |
| 2026-05-07 23:51 | 36.22765 | -78.78625 | 31018 ft | 562 kts | 24° |
| 2026-05-07 23:51 | 36.28973 | -78.72667 | 30953 ft | 566 kts | 25° |
| 2026-05-07 23:52 | 36.35166 | -78.66626 | 30938 ft | 566 kts | 25° |
| 2026-05-07 23:52 | 36.41370 | -78.60592 | 30952 ft | 565 kts | 25° |
| 2026-05-07 23:53 | 36.47575 | -78.54593 | 30936 ft | 566 kts | 25° |
| 2026-05-07 23:53 | 36.53791 | -78.48579 | 30946 ft | 567 kts | 25° |
| 2026-05-07 23:54 | 36.60008 | -78.42539 | 30944 ft | 567 kts | 25° |
| 2026-05-07 23:54 | 36.66178 | -78.36519 | 30948 ft | 567 kts | 25° |
| 2026-05-07 23:55 | 36.72389 | -78.30449 | 30949 ft | 567 kts | 25° |
| 2026-05-07 23:55 | 36.78595 | -78.24373 | 30983 ft | 567 kts | 26° |
| 2026-05-07 23:56 | 36.84810 | -78.18281 | 30983 ft | 567 kts | 25° |
| 2026-05-07 23:56 | 36.91019 | -78.12185 | 30917 ft | 566 kts | 26° |
| 2026-05-07 23:57 | 36.97201 | -78.06099 | 30925 ft | 566 kts | 26° |
| 2026-05-07 23:57 | 37.03379 | -77.99990 | 30922 ft | 565 kts | 26° |
| 2026-05-07 23:58 | 37.09553 | -77.93885 | 30914 ft | 566 kts | 26° |
| 2026-05-07 23:58 | 37.15704 | -77.87780 | 30924 ft | 562 kts | 27° |
| 2026-05-07 23:59 | 37.21840 | -77.81693 | 30930 ft | 562 kts | 27° |
| 2026-05-07 23:59 | 37.27923 | -77.75637 | 30952 ft | 562 kts | 27° |
| 2026-05-08 00:00 | 37.34036 | -77.69533 | 30504 ft | 557 kts | 28° |
| 2026-05-08 00:00 | 37.37026 | -77.66530 | 29849 ft | 546 kts | 28° |
| 2026-05-08 00:00 | 37.39984 | -77.63560 | 28936 ft | 541 kts | 28° |
| 2026-05-08 00:01 | 37.42916 | -77.60622 | 28037 ft | 537 kts | 28° |
| 2026-05-08 00:01 | 37.45834 | -77.57702 | 27140 ft | 533 kts | 29° |
| 2026-05-08 00:01 | 37.48744 | -77.54789 | 26286 ft | 530 kts | 30° |
| 2026-05-08 00:01 | 37.51617 | -77.51907 | 25466 ft | 526 kts | 30° |
| 2026-05-08 00:02 | 37.54441 | -77.49070 | 24730 ft | 522 kts | 31° |
| 2026-05-08 00:02 | 37.57309 | -77.46324 | 23946 ft | 511 kts | 24° |
| 2026-05-08 00:02 | 37.60414 | -77.44365 | 23125 ft | 490 kts | 11° |
| 2026-05-08 00:02 | 37.63620 | -77.43230 | 22208 ft | 468 kts | 4° |
| 2026-05-08 00:03 | 37.66734 | -77.42259 | 21339 ft | 453 kts | 4° |
| 2026-05-08 00:03 | 37.69749 | -77.41330 | 20489 ft | 439 kts | 4° |
| 2026-05-08 00:03 | 37.72680 | -77.40436 | 19664 ft | 428 kts | 5° |
| 2026-05-08 00:03 | 37.75552 | -77.39559 | 18860 ft | 419 kts | 5° |
| 2026-05-08 00:04 | 37.78358 | -77.38700 | 18049 ft | 411 kts | 5° |
| 2026-05-08 00:04 | 37.81108 | -77.37854 | 17274 ft | 401 kts | 5° |
| 2026-05-08 00:04 | 37.83762 | -77.37028 | 16987 ft | 387 kts | 5° |
| 2026-05-08 00:04 | 37.86387 | -77.36218 | 16353 ft | 390 kts | 5° |
| 2026-05-08 00:05 | 37.89038 | -77.35410 | 15720 ft | 392 kts | 5° |
| 2026-05-08 00:05 | 37.91695 | -77.34599 | 15105 ft | 394 kts | 6° |
| 2026-05-08 00:05 | 37.94370 | -77.33783 | 14499 ft | 396 kts | 6° |
| 2026-05-08 00:05 | 37.97028 | -77.32965 | 14070 ft | 385 kts | 6° |
| 2026-05-08 00:06 | 37.99580 | -77.32164 | 13912 ft | 373 kts | 6° |
| 2026-05-08 00:06 | 38.02088 | -77.31382 | 13933 ft | 372 kts | 6° |
| 2026-05-08 00:06 | 38.04606 | -77.30608 | 13788 ft | 371 kts | 6° |
| 2026-05-08 00:06 | 38.07122 | -77.29839 | 13233 ft | 372 kts | 6° |
| 2026-05-08 00:07 | 38.09595 | -77.29075 | 12694 ft | 367 kts | 6° |
| 2026-05-08 00:07 | 38.12074 | -77.28302 | 12155 ft | 367 kts | 6° |
| 2026-05-08 00:07 | 38.14554 | -77.27522 | 11623 ft | 367 kts | 6° |
| 2026-05-08 00:07 | 38.17029 | -77.26741 | 11097 ft | 366 kts | 7° |
| 2026-05-08 00:08 | 38.19492 | -77.25962 | 10584 ft | 364 kts | 7° |
| 2026-05-08 00:08 | 38.21937 | -77.25145 | 10159 ft | 361 kts | 8° |
| 2026-05-08 00:08 | 38.24280 | -77.24274 | 10025 ft | 343 kts | 9° |
| 2026-05-08 00:08 | 38.26558 | -77.23386 | 10039 ft | 341 kts | 10° |
| 2026-05-08 00:09 | 38.28817 | -77.22506 | 10028 ft | 339 kts | 9° |
| 2026-05-08 00:09 | 38.31093 | -77.21628 | 10043 ft | 343 kts | 9° |
| 2026-05-08 00:09 | 38.33378 | -77.20753 | 10037 ft | 343 kts | 9° |
| 2026-05-08 00:09 | 38.35673 | -77.19879 | 10037 ft | 344 kts | 9° |
| 2026-05-08 00:10 | 38.37944 | -77.19015 | 10034 ft | 344 kts | 9° |
| 2026-05-08 00:10 | 38.40263 | -77.18127 | 10040 ft | 344 kts | 9° |
| 2026-05-08 00:10 | 38.42503 | -77.17261 | 10053 ft | 335 kts | 9° |
| 2026-05-08 00:10 | 38.44707 | -77.16395 | 10042 ft | 318 kts | 9° |
| 2026-05-08 00:11 | 38.46754 | -77.15591 | 10041 ft | 308 kts | 8° |
| 2026-05-08 00:11 | 38.48798 | -77.14799 | 10040 ft | 306 kts | 8° |
| 2026-05-08 00:11 | 38.50838 | -77.14017 | 10042 ft | 306 kts | 8° |
| 2026-05-08 00:11 | 38.52874 | -77.13236 | 10040 ft | 306 kts | 8° |
| 2026-05-08 00:12 | 38.54913 | -77.12453 | 10039 ft | 306 kts | 8° |
| 2026-05-08 00:12 | 38.56945 | -77.11667 | 10037 ft | 306 kts | 8° |
| 2026-05-08 00:12 | 38.58985 | -77.10881 | 10006 ft | 306 kts | 8° |
| 2026-05-08 00:12 | 38.61022 | -77.10101 | 9672 ft | 305 kts | 8° |
| 2026-05-08 00:13 | 38.63025 | -77.09327 | 9315 ft | 293 kts | 8° |
| 2026-05-08 00:13 | 38.64929 | -77.08586 | 8983 ft | 280 kts | 9° |
| 2026-05-08 00:13 | 38.66749 | -77.07879 | 8646 ft | 267 kts | 9° |
| 2026-05-08 00:13 | 38.68465 | -77.07237 | 8298 ft | 253 kts | 5° |
| 2026-05-08 00:14 | 38.70138 | -77.06955 | 7973 ft | 238 kts | 357° |
| 2026-05-08 00:14 | 38.71759 | -77.06799 | 7642 ft | 229 kts | 358° |
| 2026-05-08 00:14 | 38.73332 | -77.06643 | 7316 ft | 224 kts | 358° |
| 2026-05-08 00:14 | 38.74882 | -77.06518 | 7050 ft | 220 kts | 354° |
| 2026-05-08 00:15 | 38.76370 | -77.06744 | 7034 ft | 213 kts | 342° |
| 2026-05-08 00:15 | 38.77759 | -77.07371 | 7031 ft | 211 kts | 330° |
| 2026-05-08 00:15 | 38.79019 | -77.08328 | 6826 ft | 211 kts | 325° |
| 2026-05-08 00:15 | 38.80235 | -77.09328 | 6458 ft | 206 kts | 326° |
| 2026-05-08 00:16 | 38.81427 | -77.10308 | 6094 ft | 201 kts | 327° |
| 2026-05-08 00:16 | 38.82588 | -77.11260 | 6036 ft | 197 kts | 327° |
| 2026-05-08 00:16 | 38.83669 | -77.12331 | 6035 ft | 197 kts | 316° |
| 2026-05-08 00:16 | 38.84658 | -77.13568 | 5846 ft | 201 kts | 316° |
| 2026-05-08 00:17 | 38.85659 | -77.14817 | 5452 ft | 199 kts | 317° |
| 2026-05-08 00:17 | 38.86637 | -77.16036 | 5108 ft | 192 kts | 317° |
| 2026-05-08 00:17 | 38.87579 | -77.17207 | 4716 ft | 186 kts | 316° |
| 2026-05-08 00:17 | 38.88497 | -77.18351 | 4324 ft | 182 kts | 316° |
| 2026-05-08 00:18 | 38.89402 | -77.19476 | 3933 ft | 180 kts | 316° |
| 2026-05-08 00:18 | 38.90306 | -77.20600 | 3542 ft | 180 kts | 316° |
| 2026-05-08 00:18 | 38.91188 | -77.21698 | 3173 ft | 178 kts | 315° |
| 2026-05-08 00:18 | 38.92051 | -77.22776 | 3038 ft | 171 kts | 315° |
| 2026-05-08 00:19 | 38.92902 | -77.23838 | 3014 ft | 171 kts | 315° |
| 2026-05-08 00:19 | 38.93846 | -77.24751 | 3006 ft | 171 kts | 336° |
| 2026-05-08 00:19 | 38.95024 | -77.24906 | 3009 ft | 176 kts | 8° |
| 2026-05-08 00:19 | 38.96106 | -77.24177 | 3012 ft | 181 kts | 43° |
| 2026-05-08 00:20 | 38.96685 | -77.22805 | 2991 ft | 170 kts | 77° |
| 2026-05-08 00:20 | 38.96698 | -77.21329 | 2954 ft | 164 kts | 92° |
| 2026-05-08 00:20 | 38.96650 | -77.19888 | 2795 ft | 159 kts | 91° |
| 2026-05-08 00:20 | 38.96607 | -77.18481 | 2732 ft | 158 kts | 92° |
| 2026-05-08 00:21 | 38.96564 | -77.17073 | 2732 ft | 159 kts | 92° |
| 2026-05-08 00:21 | 38.96331 | -77.15700 | 2732 ft | 158 kts | 113° |
| 2026-05-08 00:21 | 38.95757 | -77.14519 | 2731 ft | 157 kts | 134° |
| 2026-05-08 00:21 | 38.94947 | -77.13583 | 2650 ft | 159 kts | 142° |
| 2026-05-08 00:22 | 38.94098 | -77.12648 | 2266 ft | 166 kts | 143° |
| 2026-05-08 00:22 | 38.93228 | -77.11722 | 2055 ft | 154 kts | 149° |
| 2026-05-08 00:22 | 38.92331 | -77.10982 | 1912 ft | 151 kts | 152° |
| 2026-05-08 00:22 | 38.91446 | -77.10288 | 1711 ft | 148 kts | 154° |
| 2026-05-08 00:23 | 38.90682 | -77.09413 | 1435 ft | 151 kts | 125° |
| 2026-05-08 00:23 | 38.90286 | -77.08169 | 1186 ft | 151 kts | 109° |
| 2026-05-08 00:23 | 38.89897 | -77.06959 | 1058 ft | 146 kts | 127° |
| 2026-05-08 00:23 | 38.89219 | -77.06056 | 857 ft | 143 kts | 142° |
| 2026-05-08 00:24 | 38.88492 | -77.05224 | 709 ft | 139 kts | 141° |
| 2026-05-08 00:24 | 38.87785 | -77.04394 | 534 ft | 136 kts | 147° |
| 2026-05-08 00:24 | 38.86934 | -77.03964 | 234 ft | 131 kts | 174° |
| 2026-05-08 00:24 | 38.86034 | -77.03867 | 51 ft | 129 kts | 175° |
| 2026-05-08 00:25 | 38.85256 | -77.03788 | 22 ft | 87 kts | 179° |
| 2026-05-08 00:25 | 38.84935 | -77.03760 | 23 ft | 24 kts | 185° |
| 2026-05-08 00:25 | 38.84875 | -77.03854 | 22 ft | 1 kts | 272° |
| 2026-05-08 00:25 | 38.84875 | -77.03858 | 22 ft | 0 kts | 272° |
| 2026-05-08 00:26 | 38.84875 | -77.03860 | 23 ft | 1 kts | 275° |
| 2026-05-08 00:27 | 38.84879 | -77.03926 | 24 ft | 5 kts | 282° |
| 2026-05-08 00:27 | 38.84903 | -77.03950 | 24 ft | 5 kts | 343° |
| 2026-05-08 00:27 | 38.84955 | -77.03958 | 24 ft | 8 kts | 354° |
| 2026-05-08 00:27 | 38.85019 | -77.03964 | 24 ft | 9 kts | 357° |
| 2026-05-08 00:28 | 38.85086 | -77.03970 | 25 ft | 12 kts | 355° |
| 2026-05-08 00:28 | 38.85167 | -77.03977 | 24 ft | 11 kts | 356° |
| 2026-05-08 00:28 | 38.85254 | -77.03986 | 27 ft | 13 kts | 355° |
| 2026-05-08 00:28 | 38.85340 | -77.03995 | 24 ft | 12 kts | 355° |
| 2026-05-08 00:29 | 38.85414 | -77.04003 | 24 ft | 10 kts | 355° |
| 2026-05-08 00:29 | 38.85488 | -77.04012 | 24 ft | 10 kts | 353° |
| 2026-05-08 00:29 | 38.85536 | -77.04045 | 24 ft | 7 kts | 307° |
| 2026-05-08 00:29 | 38.85535 | -77.04103 | 24 ft | 6 kts | 254° |
| 2026-05-08 00:30 | 38.85538 | -77.04144 | 24 ft | 0 kts | 298° |
| 2026-05-08 00:30 | 38.85538 | -77.04145 | 24 ft | 1 kts | 300° |
| 2026-05-08 00:30 | 38.85545 | -77.04151 | 27 ft | 0 kts | 322° |
| 2026-05-08 00:30 | 38.85555 | -77.04160 | 25 ft | 2 kts | 328° |
| 2026-05-08 00:31 | 38.85563 | -77.04164 | 24 ft | 2 kts | 334° |
| 2026-05-08 00:31 | 38.85571 | -77.04168 | 24 ft | 1 kts | 339° |
| 2026-05-08 00:31 | 38.85577 | -77.04172 | 24 ft | 0 kts | 334° |